Time;durP1;ratioP1;P1;durP2;ratioP2;P2;SDS_P1;SDS_P2;PMS_P1;PMS_P2;Temp;Humidity;BMP_temperature;BMP_pressure;BME280_temperature;BME280_humidity;BME280_pressure;Samples;Min_cycle;Max_cycle;Signal;HPM_P1;HPM_P2
2024/01/05 00:00:36;;;;;;;7.40;3.57;;;;;;;5.56;100.00;97035.88;5113629;28;20227;-75
2024/01/05 00:03:08;;;;;;;7.27;3.70;;;;;;;5.41;100.00;97037.97;5113369;28;20213;-74
2024/01/05 00:05:46;;;;;;;10.73;4.10;;;;;;;5.46;100.00;97027.59;5113250;28;20198;-75
2024/01/05 00:08:17;;;;;;;8.10;3.67;;;;;;;5.48;100.00;97023.75;5113928;28;20240;-74
2024/01/05 00:10:48;;;;;;;10.17;4.17;;;;;;;5.46;100.00;97017.88;5118038;28;20276;-74
2024/01/05 00:13:14;;;;;;;9.80;3.77;;;;;;;5.41;100.00;97011.63;5117536;28;20191;-75
2024/01/05 00:15:41;;;;;;;9.13;4.03;;;;;;;5.40;100.00;97010.84;5117466;28;20199;-74
2024/01/05 00:18:11;;;;;;;9.43;3.30;;;;;;;5.42;100.00;97008.78;5117475;28;20207;-74
2024/01/05 00:20:43;;;;;;;7.50;3.43;;;;;;;5.43;100.00;97006.97;5117726;28;20276;-74
2024/01/05 00:23:20;;;;;;;9.50;3.80;;;;;;;5.39;100.00;97001.28;5117407;28;20211;-74
2024/01/05 00:25:46;;;;;;;9.83;3.30;;;;;;;5.35;100.00;96996.66;5117374;28;20729;-74
2024/01/05 00:28:12;;;;;;;7.47;3.17;;;;;;;5.37;100.00;96990.16;5117442;28;20293;-74
2024/01/05 00:30:42;;;;;;;10.33;3.87;;;;;;;5.31;100.00;96983.13;5117617;28;20219;-74
2024/01/05 00:33:10;;;;;;;7.47;4.17;;;;;;;5.31;100.00;96982.28;5117113;28;20290;-75
2024/01/05 00:35:40;;;;;;;6.30;3.00;;;;;;;5.33;100.00;96983.69;5117218;28;20612;-75
2024/01/05 00:38:08;;;;;;;8.87;3.50;;;;;;;5.31;100.00;96988.38;5117557;28;20206;-75
2024/01/05 00:40:36;;;;;;;7.40;3.30;;;;;;;5.27;100.00;96991.63;5117026;28;20227;-75
2024/01/05 00:43:03;;;;;;;6.93;3.37;;;;;;;5.26;100.00;96982.94;5117082;28;20253;-74
2024/01/05 00:45:29;;;;;;;8.73;3.47;;;;;;;5.28;100.00;96993.25;5117142;27;20203;-74
2024/01/05 00:47:55;;;;;;;10.00;2.93;;;;;;;5.36;100.00;96996.47;5116917;28;20209;-74
2024/01/05 00:50:22;;;;;;;8.93;3.40;;;;;;;5.37;100.00;96999.88;5117115;28;20223;-75
2024/01/05 00:52:49;;;;;;;8.20;3.43;;;;;;;5.26;100.00;96987.41;5118135;28;20200;-75
2024/01/05 00:55:15;;;;;;;5.70;3.03;;;;;;;5.20;100.00;96983.78;5116951;28;20209;-75
2024/01/05 00:57:42;;;;;;;6.60;3.30;;;;;;;5.17;100.00;96986.03;5117025;28;20206;-74
2024/01/05 01:00:10;;;;;;;6.50;3.10;;;;;;;5.27;100.00;96983.72;5116586;28;20223;-74
2024/01/05 01:02:40;;;;;;;11.70;3.47;;;;;;;5.21;100.00;96984.59;5116619;27;20233;-74
2024/01/05 01:05:07;;;;;;;7.43;2.67;;;;;;;5.20;100.00;96994.31;5116839;28;20311;-74
2024/01/05 01:07:34;;;;;;;6.13;2.70;;;;;;;5.20;100.00;97001.41;5116817;28;20203;-74
2024/01/05 01:10:00;;;;;;;7.30;2.43;;;;;;;5.24;100.00;97006.03;5116842;28;20231;-74
2024/01/05 01:12:28;;;;;;;4.90;1.90;;;;;;;5.55;100.00;97007.88;5116828;28;20326;-74
2024/01/05 01:14:56;;;;;;;3.77;1.70;;;;;;;5.98;100.00;97000.91;5116512;28;20669;-74
2024/01/05 01:17:22;;;;;;;6.87;2.33;;;;;;;6.07;100.00;97007.53;5116373;28;20294;-74
2024/01/05 01:19:49;;;;;;;5.63;1.70;;;;;;;6.12;100.00;97013.78;5115848;28;20239;-74
2024/01/05 01:22:16;;;;;;;6.23;1.90;;;;;;;6.10;100.00;97020.31;5116726;28;20225;-74
2024/01/05 01:24:42;;;;;;;6.80;2.10;;;;;;;6.10;100.00;97009.75;5116702;28;20200;-74
2024/01/05 01:27:09;;;;;;;3.30;1.50;;;;;;;6.08;100.00;97009.16;5116273;28;20203;-74
2024/01/05 01:29:35;;;;;;;5.70;1.90;;;;;;;6.02;100.00;96999.47;5116139;28;20230;-74
2024/01/05 01:32:01;;;;;;;7.40;1.83;;;;;;;6.01;100.00;96987.31;5116176;28;20203;-74
2024/01/05 01:34:32;;;;;;;5.73;1.77;;;;;;;5.94;100.00;96987.38;5116189;28;20221;-74
2024/01/05 01:37:00;;;;;;;4.13;1.90;;;;;;;5.91;100.00;96982.50;5115825;28;20196;-74
2024/01/05 01:39:27;;;;;;;4.57;1.90;;;;;;;5.94;100.00;96974.19;5116328;27;20244;-74
2024/01/05 01:41:54;;;;;;;5.10;1.90;;;;;;;5.89;100.00;96973.19;5115918;28;20222;-74
2024/01/05 01:44:21;;;;;;;3.13;1.60;;;;;;;5.99;100.00;96976.16;5116289;28;20215;-74
2024/01/05 01:46:49;;;;;;;3.53;1.97;;;;;;;5.86;100.00;96957.78;5115888;28;20287;-74
2024/01/05 01:49:16;;;;;;;6.90;2.67;;;;;;;5.87;100.00;96949.66;5116159;28;20308;-74
2024/01/05 01:51:42;;;;;;;5.50;2.53;;;;;;;5.80;100.00;96948.09;5116089;28;20205;-74
2024/01/05 01:54:09;;;;;;;8.63;2.10;;;;;;;5.86;100.00;96947.25;5116091;28;20561;-74
2024/01/05 01:56:37;;;;;;;6.63;2.13;;;;;;;5.88;100.00;96932.81;5116136;28;20211;-74
2024/01/05 01:59:07;;;;;;;6.57;2.57;;;;;;;5.94;100.00;96923.25;5116116;28;20303;-74
2024/01/05 02:01:34;;;;;;;4.77;2.20;;;;;;;5.81;100.00;96916.25;5115642;28;20235;-74
2024/01/05 02:04:01;;;;;;;3.97;2.33;;;;;;;5.85;100.00;96922.72;5115913;28;20230;-74
2024/01/05 02:06:28;;;;;;;6.40;2.70;;;;;;;5.71;100.00;96921.19;5116439;28;20210;-74
2024/01/05 02:08:55;;;;;;;5.87;2.60;;;;;;;5.65;100.00;96914.13;5115768;28;20291;-74
2024/01/05 02:11:21;;;;;;;6.93;2.70;;;;;;;5.73;100.00;96918.31;5115804;28;20206;-74
2024/01/05 02:13:48;;;;;;;6.17;2.40;;;;;;;5.62;100.00;96914.56;5115671;28;20207;-74
2024/01/05 02:16:15;;;;;;;7.73;2.80;;;;;;;5.71;100.00;96915.91;5115321;28;20607;-74
2024/01/05 02:18:41;;;;;;;9.80;2.63;;;;;;;5.63;100.00;96916.19;5115649;28;20209;-74
2024/01/05 02:21:11;;;;;;;4.50;2.33;;;;;;;5.63;100.00;96918.00;5115695;28;20309;-74
2024/01/05 02:23:40;;;;;;;4.17;2.60;;;;;;;5.62;100.00;96919.84;5115370;28;20563;-74
2024/01/05 02:26:07;;;;;;;4.73;2.60;;;;;;;5.53;100.00;96909.78;5114916;28;20733;-74
2024/01/05 02:28:40;;;;;;;8.60;3.13;;;;;;;5.54;100.00;96900.84;5115092;28;20203;-74
2024/01/05 02:31:08;;;;;;;9.07;2.90;;;;;;;5.43;100.00;96902.34;5115126;28;20223;-74
2024/01/05 02:33:38;;;;;;;5.47;2.60;;;;;;;5.40;100.00;96888.78;5115049;28;20272;-74
2024/01/05 02:36:12;;;;;;;5.30;2.50;;;;;;;5.39;100.00;96889.81;5115221;28;20256;-74
2024/01/05 02:38:40;;;;;;;6.20;2.87;;;;;;;5.33;100.00;96890.69;5114719;28;20192;-74
2024/01/05 02:41:09;;;;;;;7.63;2.90;;;;;;;5.36;100.00;96882.31;5114726;28;20326;-74
2024/01/05 02:43:40;;;;;;;7.83;3.30;;;;;;;5.29;100.00;96887.66;5114716;28;20199;-74
2024/01/05 02:46:09;;;;;;;6.93;2.60;;;;;;;5.30;100.00;96896.38;5114576;28;20634;-74
2024/01/05 02:48:39;;;;;;;7.50;2.63;;;;;;;5.33;100.00;96890.69;5114685;28;20700;-74
2024/01/05 02:51:08;;;;;;;6.47;2.07;;;;;;;5.30;100.00;96893.72;5114436;28;20269;-74
2024/01/05 02:53:35;;;;;;;4.63;2.07;;;;;;;5.34;100.00;96887.81;5114482;28;20203;-74
2024/01/05 02:56:02;;;;;;;6.37;2.20;;;;;;;5.45;100.00;96881.88;5114801;28;20210;-74
2024/01/05 02:58:28;;;;;;;4.70;1.70;;;;;;;5.59;100.00;96893.09;5114519;28;20677;-74
2024/01/05 03:00:54;;;;;;;4.47;1.60;;;;;;;5.49;100.00;96884.88;5114337;28;20688;-74
2024/01/05 03:03:21;;;;;;;6.27;1.70;;;;;;;5.46;100.00;96877.38;5114432;28;20680;-74
2024/01/05 03:05:47;;;;;;;5.00;2.10;;;;;;;5.58;100.00;96863.31;5114771;28;20628;-74
2024/01/05 03:08:14;;;;;;;7.03;2.00;;;;;;;5.67;100.00;96874.38;5114693;28;20203;-74
2024/01/05 03:10:40;;;;;;;5.47;2.33;;;;;;;5.80;100.00;96867.19;5114265;28;20703;-74
2024/01/05 03:13:06;;;;;;;7.03;2.00;;;;;;;5.66;100.00;96862.22;5114319;28;20658;-74
2024/01/05 03:15:33;;;;;;;5.40;2.20;;;;;;;5.63;100.00;96879.28;5114539;28;20210;-74
2024/01/05 03:18:08;;;;;;;6.73;2.37;;;;;;;5.56;100.00;96872.44;5114526;28;20219;-74
2024/01/05 03:20:44;;;;;;;4.73;1.80;;;;;;;5.48;100.00;96870.09;5114154;28;20222;-74
2024/01/05 03:23:11;;;;;;;5.77;2.40;;;;;;;5.45;100.00;96873.13;5113972;28;20567;-74
2024/01/05 03:25:42;;;;;;;5.03;2.10;;;;;;;5.38;100.00;96865.28;5113986;28;20199;-74
2024/01/05 03:28:14;;;;;;;4.77;2.10;;;;;;;5.38;100.00;96844.19;5113571;28;20244;-74
2024/01/05 03:30:45;;;;;;;6.53;2.33;;;;;;;5.41;100.00;96848.22;5113774;28;20222;-74
2024/01/05 03:33:18;;;;;;;3.90;1.97;;;;;;;5.43;100.00;96852.25;5113863;28;20199;-74
2024/01/05 03:35:47;;;;;;;8.20;1.90;;;;;;;5.51;100.00;96840.63;5113643;28;20195;-74
2024/01/05 03:38:16;;;;;;;4.47;1.80;;;;;;;5.64;100.00;96835.25;5113857;28;20203;-74
2024/01/05 03:40:43;;;;;;;7.13;1.80;;;;;;;5.63;100.00;96836.28;5113870;28;20272;-74
2024/01/05 03:43:11;;;;;;;5.70;1.70;;;;;;;5.67;100.00;96837.47;5113221;28;20333;-74
2024/01/05 03:45:49;;;;;;;5.33;1.80;;;;;;;5.74;100.00;96823.19;5113564;28;20272;-74
2024/01/05 03:48:20;;;;;;;5.37;1.60;;;;;;;5.91;100.00;96826.06;5113526;28;20202;-74
2024/01/05 03:50:53;;;;;;;3.53;1.20;;;;;;;5.87;100.00;96822.25;5113613;28;20261;-74
2024/01/05 03:53:19;;;;;;;2.87;1.20;;;;;;;5.97;100.00;96818.09;5113663;28;20532;-74
2024/01/05 03:55:49;;;;;;;5.10;1.20;;;;;;;5.97;100.00;96818.09;5113673;28;20210;-74
2024/01/05 03:58:16;;;;;;;3.43;1.10;;;;;;;5.98;100.00;96826.81;5113607;28;20670;-74
2024/01/05 04:00:43;;;;;;;3.87;1.43;;;;;;;6.06;100.00;96829.97;5113447;28;20223;-74
2024/01/05 04:03:10;;;;;;;5.60;1.27;;;;;;;6.34;100.00;96830.22;5113144;28;20269;-74
2024/01/05 04:05:36;;;;;;;3.43;1.20;;;;;;;6.35;100.00;96820.50;5113388;28;20214;-74
2024/01/05 04:08:03;;;;;;;5.50;1.47;;;;;;;6.48;100.00;96820.34;5113669;28;20199;-74
2024/01/05 04:10:29;;;;;;;3.70;0.90;;;;;;;6.56;100.00;96823.47;5113427;28;20231;-75
2024/01/05 04:12:55;;;;;;;3.27;1.07;;;;;;;6.71;100.00;96809.88;5113658;28;20195;-74
2024/01/05 04:15:22;;;;;;;3.00;1.00;;;;;;;6.85;100.00;96804.19;5113596;28;20203;-74
2024/01/05 04:17:48;;;;;;;4.40;1.10;;;;;;;6.88;100.00;96805.56;5113564;28;20207;-74
2024/01/05 04:20:15;;;;;;;3.13;0.97;;;;;;;6.97;100.00;96799.69;5113398;28;20234;-74
2024/01/05 04:22:41;;;;;;;3.30;1.00;;;;;;;7.09;100.00;96811.13;5113285;28;20227;-74
2024/01/05 04:25:08;;;;;;;4.97;1.30;;;;;;;7.24;100.00;96811.47;5113243;28;20684;-74
2024/01/05 04:27:34;;;;;;;2.63;1.10;;;;;;;7.35;100.00;96812.53;5114031;28;20203;-74
2024/01/05 04:30:00;;;;;;;2.70;1.10;;;;;;;7.34;100.00;96808.28;5113485;28;20219;-74
2024/01/05 04:32:27;;;;;;;3.43;0.90;;;;;;;7.45;100.00;96795.06;5113422;28;20202;-74
2024/01/05 04:34:53;;;;;;;2.53;0.93;;;;;;;7.53;100.00;96794.72;5113187;28;20200;-74
2024/01/05 04:37:19;;;;;;;2.47;0.90;;;;;;;7.48;100.00;96785.88;5113055;28;20209;-74
2024/01/05 04:39:46;;;;;;;4.07;1.13;;;;;;;7.45;100.00;96792.41;5112959;28;20227;-74
2024/01/05 04:42:12;;;;;;;2.53;0.83;;;;;;;7.50;100.00;96786.44;5113087;28;20223;-74
2024/01/05 04:44:39;;;;;;;1.87;0.70;;;;;;;7.55;100.00;96794.50;5113255;28;20207;-74
2024/01/05 04:47:05;;;;;;;1.27;0.87;;;;;;;7.44;100.00;96792.66;5113425;28;20199;-74
2024/01/05 04:49:33;;;;;;;3.50;1.03;;;;;;;7.33;100.00;96790.81;5113280;28;20245;-74
2024/01/05 04:52:00;;;;;;;2.93;0.93;;;;;;;7.40;100.00;96791.50;5114594;28;20219;-74
2024/01/05 04:54:27;;;;;;;1.73;0.80;;;;;;;7.39;100.00;96787.25;5114585;28;20207;-74
2024/01/05 04:56:53;;;;;;;4.43;1.00;;;;;;;7.32;100.00;96783.91;5117009;28;20239;-74
2024/01/05 04:59:21;;;;;;;3.37;0.80;;;;;;;7.37;100.00;96781.41;5116609;28;20714;-74
2024/01/05 05:01:47;;;;;;;5.07;1.20;;;;;;;7.31;100.00;96792.88;5117455;27;20589;-74
2024/01/05 05:04:17;;;;;;;2.77;0.87;;;;;;;7.37;100.00;96782.19;5116763;28;20214;-74
2024/01/05 05:06:43;;;;;;;2.13;0.80;;;;;;;7.35;100.00;96776.34;5116794;28;20203;-74
2024/01/05 05:09:10;;;;;;;3.27;1.10;;;;;;;7.37;100.00;96789.31;5116437;28;20229;-74
2024/01/05 05:11:36;;;;;;;3.33;0.90;;;;;;;7.35;100.00;96797.47;5116771;28;20211;-75
2024/01/05 05:14:03;;;;;;;4.50;1.20;;;;;;;7.33;100.00;96788.16;5116525;28;20214;-75
2024/01/05 05:16:29;;;;;;;1.93;0.80;;;;;;;7.45;100.00;96788.97;5115920;28;20696;-75
2024/01/05 05:18:55;;;;;;;3.17;1.30;;;;;;;7.39;100.00;96784.59;5115850;28;20634;-74
2024/01/05 05:21:22;;;;;;;2.00;0.90;;;;;;;7.30;100.00;96788.63;5116397;28;20222;-75
2024/01/05 05:23:48;;;;;;;2.10;0.90;;;;;;;7.38;100.00;96790.94;5116453;28;20211;-74
2024/01/05 05:26:14;;;;;;;2.90;1.00;;;;;;;7.31;100.00;96783.09;5116430;28;20213;-74
2024/01/05 05:28:41;;;;;;;2.70;0.90;;;;;;;7.37;100.00;96782.19;5116208;28;20199;-74
2024/01/05 05:31:07;;;;;;;2.53;0.83;;;;;;;7.32;100.00;96773.31;5116223;28;20309;-74
2024/01/05 05:33:34;;;;;;;2.47;0.97;;;;;;;7.41;100.00;96779.88;5115948;28;20203;-74
2024/01/05 05:36:00;;;;;;;2.43;1.00;;;;;;;7.34;100.00;96776.56;5115840;28;20670;-74
2024/01/05 05:38:26;;;;;;;2.43;0.90;;;;;;;7.30;100.00;96772.75;5116201;28;20545;-74
2024/01/05 05:40:53;;;;;;;1.67;0.80;;;;;;;7.21;100.00;96785.53;5115981;28;20587;-74
2024/01/05 05:43:20;;;;;;;1.10;0.70;;;;;;;7.08;100.00;96779.63;5115724;28;20227;-74
2024/01/05 05:45:46;;;;;;;3.37;1.10;;;;;;;7.01;100.00;96789.50;5116210;28;20211;-74
2024/01/05 05:48:13;;;;;;;5.20;1.30;;;;;;;7.03;100.00;96790.06;5115775;28;20206;-74
2024/01/05 05:50:40;;;;;;;3.17;1.00;;;;;;;6.94;100.00;96792.25;5115478;28;20735;-74
2024/01/05 05:53:06;;;;;;;2.20;0.90;;;;;;;6.88;100.00;96787.06;5115971;28;20195;-74
2024/01/05 05:55:32;;;;;;;2.67;0.90;;;;;;;6.83;100.00;96784.31;5115809;28;20199;-74
2024/01/05 05:57:59;;;;;;;4.50;1.10;;;;;;;6.84;100.00;96778.75;5115438;28;20304;-74
2024/01/05 06:00:26;;;;;;;5.47;0.90;;;;;;;6.86;100.00;96786.47;5115457;28;20238;-74
2024/01/05 06:02:52;;;;;;;2.13;0.83;;;;;;;6.89;100.00;96776.28;5115164;28;20694;-74
2024/01/05 06:05:18;;;;;;;2.10;0.90;;;;;;;6.86;100.00;96783.81;5115325;28;20699;-74
2024/01/05 06:07:45;;;;;;;3.47;1.00;;;;;;;6.83;100.00;96787.72;5114363;28;20572;-74
2024/01/05 06:10:12;;;;;;;4.20;1.47;;;;;;;6.78;100.00;96781.53;5115244;28;20239;-74
2024/01/05 06:12:38;;;;;;;3.87;1.67;;;;;;;6.75;100.00;96777.47;5115469;28;20291;-74
2024/01/05 06:15:05;;;;;;;3.93;1.07;;;;;;;6.83;100.00;96779.00;5115154;28;20204;-74
2024/01/05 06:17:31;;;;;;;2.03;1.17;;;;;;;6.76;100.00;96775.66;5115034;28;20254;-74
2024/01/05 06:19:58;;;;;;;3.07;0.83;;;;;;;6.74;100.00;96783.00;5115192;28;20226;-74
2024/01/05 06:22:24;;;;;;;3.50;0.90;;;;;;;6.85;100.00;96784.88;5114906;28;20239;-74
2024/01/05 06:24:51;;;;;;;2.63;0.80;;;;;;;6.75;100.00;96785.41;5115299;28;20206;-74
2024/01/05 06:27:17;;;;;;;2.67;0.87;;;;;;;6.81;100.00;96789.00;5115109;28;20206;-74
2024/01/05 06:29:43;;;;;;;2.40;0.83;;;;;;;6.88;100.00;96785.22;5115047;28;20234;-74
2024/01/05 06:32:10;;;;;;;3.33;1.13;;;;;;;6.95;100.00;96790.41;5114982;28;20207;-74
2024/01/05 06:34:36;;;;;;;1.63;1.00;;;;;;;7.00;100.00;96806.38;5115477;28;20206;-74
2024/01/05 06:37:03;;;;;;;2.33;0.97;;;;;;;6.98;100.00;96803.97;5114925;28;20230;-74
2024/01/05 06:39:29;;;;;;;2.20;1.07;;;;;;;6.94;100.00;96800.19;5115052;28;20223;-74
2024/01/05 06:41:55;;;;;;;2.63;1.10;;;;;;;6.87;100.00;96799.47;5114740;28;20213;-74
2024/01/05 06:44:22;;;;;;;4.30;1.13;;;;;;;6.87;100.00;96803.94;5114482;28;20260;-74
2024/01/05 06:46:50;;;;;;;2.10;0.93;;;;;;;6.87;100.00;96798.66;5114708;28;20298;-74
2024/01/05 06:49:16;;;;;;;5.57;1.30;;;;;;;6.88;100.00;96806.34;5115016;28;20231;-74
2024/01/05 06:51:43;;;;;;;2.10;0.80;;;;;;;6.85;100.00;96798.06;5114350;28;20221;-74
2024/01/05 06:54:10;;;;;;;2.37;1.10;;;;;;;6.85;100.00;96790.16;5114484;28;20210;-74
2024/01/05 06:56:36;;;;;;;3.60;1.40;;;;;;;6.80;100.00;96787.38;5114526;28;20207;-74
2024/01/05 06:59:04;;;;;;;4.37;0.90;;;;;;;6.70;100.00;96789.78;5114163;28;20210;-74
2024/01/05 07:01:31;;;;;;;3.40;1.23;;;;;;;6.59;100.00;96793.16;5114398;28;20545;-75
2024/01/05 07:03:58;;;;;;;1.80;1.10;;;;;;;6.62;100.00;96805.91;5114162;28;20245;-75
2024/01/05 07:06:24;;;;;;;4.83;1.10;;;;;;;6.62;100.00;96805.91;5113840;28;20209;-75
2024/01/05 07:08:51;;;;;;;3.23;0.97;;;;;;;6.71;100.00;96815.16;5114309;28;20234;-74
2024/01/05 07:11:22;;;;;;;5.00;1.20;;;;;;;6.69;100.00;96814.56;5114163;28;20657;-74
2024/01/05 07:13:49;;;;;;;2.30;0.90;;;;;;;6.63;100.00;96812.81;5114178;28;20202;-74
2024/01/05 07:16:24;;;;;;;3.40;1.27;;;;;;;6.58;100.00;96807.41;5114396;28;20666;-74
2024/01/05 07:18:51;;;;;;;1.67;0.80;;;;;;;6.68;100.00;96810.28;5112941;28;20638;-74
2024/01/05 07:21:17;;;;;;;2.60;0.90;;;;;;;6.73;100.00;96810.44;5113839;28;20205;-74
2024/01/05 07:23:44;;;;;;;4.80;1.40;;;;;;;6.71;100.00;96804.56;5114156;28;20217;-75
2024/01/05 07:26:11;;;;;;;3.23;1.00;;;;;;;6.56;100.00;96798.91;5113994;28;20213;-75
2024/01/05 07:28:38;;;;;;;4.00;1.00;;;;;;;6.47;100.00;96795.75;5113739;28;20300;-75
2024/01/05 07:31:05;;;;;;;1.40;0.90;;;;;;;6.40;100.00;96796.88;5113860;28;20250;-75
2024/01/05 07:33:32;;;;;;;3.03;1.00;;;;;;;6.37;100.00;96797.31;5113731;28;20209;-75
2024/01/05 07:36:04;;;;;;;2.70;1.00;;;;;;;6.20;100.00;96796.34;5114813;28;20203;-75
2024/01/05 07:38:31;;;;;;;1.77;1.00;;;;;;;6.17;100.00;96802.88;5113582;28;20215;-75
2024/01/05 07:40:57;;;;;;;3.87;1.07;;;;;;;6.16;100.00;96808.34;5113461;28;20732;-75
2024/01/05 07:43:24;;;;;;;3.80;1.50;;;;;;;6.31;100.00;96809.59;5113289;28;20219;-75
2024/01/05 07:45:50;;;;;;;6.90;1.40;;;;;;;6.19;100.00;96802.66;5113628;28;20207;-74
2024/01/05 07:48:16;;;;;;;3.37;1.43;;;;;;;6.32;100.00;96799.81;5113531;28;20203;-74
2024/01/05 07:50:43;;;;;;;3.10;0.90;;;;;;;6.34;100.00;96797.78;5113602;28;20234;-74
2024/01/05 07:53:09;;;;;;;4.20;1.27;;;;;;;6.38;100.00;96801.59;5113047;28;20199;-75
2024/01/05 07:55:35;;;;;;;4.10;1.30;;;;;;;6.46;100.00;96802.06;5113674;28;20200;-74
2024/01/05 07:58:02;;;;;;;2.97;1.40;;;;;;;6.46;100.00;96795.97;5113261;28;20203;-74
2024/01/05 08:00:28;;;;;;;3.60;1.50;;;;;;;6.51;100.00;96804.06;5113276;28;20219;-75
2024/01/05 08:02:55;;;;;;;4.00;1.43;;;;;;;6.56;100.00;96806.84;5113301;28;20222;-74
2024/01/05 08:05:22;;;;;;;2.53;1.00;;;;;;;6.73;100.00;96808.59;5113073;28;20211;-74
2024/01/05 08:07:48;;;;;;;2.20;1.00;;;;;;;6.74;100.00;96812.06;5113439;28;20237;-75
2024/01/05 08:10:19;;;;;;;3.40;0.90;;;;;;;6.85;100.00;96806.00;5113369;28;20219;-75
2024/01/05 08:12:55;;;;;;;2.40;1.20;;;;;;;6.91;100.00;96802.44;5113052;28;20187;-74
2024/01/05 08:15:30;;;;;;;4.67;1.40;;;;;;;7.00;100.00;96798.44;5113168;28;20230;-74
2024/01/05 08:17:59;;;;;;;3.10;1.10;;;;;;;7.00;100.00;96798.44;5113864;28;20183;-74
2024/01/05 08:20:33;;;;;;;3.93;1.27;;;;;;;7.05;100.00;96790.63;5113081;28;20224;-74
2024/01/05 08:23:12;;;;;;;3.33;1.00;;;;;;;7.06;100.00;96784.34;5112595;28;20223;-74
2024/01/05 08:25:40;;;;;;;3.57;1.30;;;;;;;7.12;100.00;96781.59;5113167;28;20239;-74
2024/01/05 08:28:07;;;;;;;6.13;1.63;;;;;;;7.11;100.00;96782.59;5113240;28;20210;-74
2024/01/05 08:30:36;;;;;;;3.23;1.00;;;;;;;7.13;100.00;96790.31;5116131;28;20349;-74
2024/01/05 08:33:03;;;;;;;2.97;1.33;;;;;;;7.16;100.00;96793.31;5117304;28;20222;-75
2024/01/05 08:35:29;;;;;;;3.33;1.40;;;;;;;7.18;100.00;96788.59;5117448;28;20207;-74
2024/01/05 08:37:56;;;;;;;2.43;1.43;;;;;;;7.28;100.00;96788.06;5117164;28;20199;-74
2024/01/05 08:40:25;;;;;;;3.97;1.70;;;;;;;7.36;100.00;96792.97;5117359;28;20226;-74
2024/01/05 08:42:52;;;;;;;3.30;1.60;;;;;;;7.45;100.00;96787.13;5117067;28;20262;-74
2024/01/05 08:45:19;;;;;;;4.83;1.60;;;;;;;7.49;100.00;96788.28;5117058;28;20211;-74
2024/01/05 08:47:46;;;;;;;2.67;1.40;;;;;;;7.57;100.00;96789.78;5117212;28;20252;-75
2024/01/05 08:50:13;;;;;;;2.87;1.60;;;;;;;7.56;100.00;96790.81;5116801;28;20226;-75
2024/01/05 08:52:39;;;;;;;3.80;2.10;;;;;;;7.59;100.00;96795.63;5117030;28;20203;-75
2024/01/05 08:55:06;;;;;;;4.20;2.40;;;;;;;7.69;100.00;96788.72;5116935;28;20203;-75
2024/01/05 08:57:32;;;;;;;4.33;2.50;;;;;;;7.53;100.00;96793.91;5116783;28;20214;-75
2024/01/05 08:59:59;;;;;;;6.80;2.83;;;;;;;7.40;100.00;96791.50;5116564;28;20219;-75
2024/01/05 09:02:27;;;;;;;8.73;2.70;;;;;;;7.23;100.00;96787.91;5116389;28;20684;-74
2024/01/05 09:04:53;;;;;;;5.23;2.50;;;;;;;7.10;100.00;96794.22;5116646;28;20222;-76
2024/01/05 09:07:19;;;;;;;5.20;2.33;;;;;;;7.07;100.00;96793.88;5116230;28;20206;-74
2024/01/05 09:09:46;;;;;;;4.83;2.13;;;;;;;6.91;100.00;96797.97;5116494;28;20228;-74
2024/01/05 09:12:13;;;;;;;5.43;2.60;;;;;;;6.84;100.00;96791.97;5116250;28;20257;-74
2024/01/05 09:14:39;;;;;;;4.90;2.53;;;;;;;6.76;100.00;96796.78;5116213;28;20301;-74
2024/01/05 09:17:06;;;;;;;5.90;2.50;;;;;;;6.73;100.00;96805.97;5116020;28;20681;-74
2024/01/05 09:19:33;;;;;;;6.37;2.57;;;;;;;6.62;100.00;96798.81;5116469;28;20252;-74
2024/01/05 09:22:01;;;;;;;4.90;2.13;;;;;;;6.63;100.00;96799.59;5116045;28;20211;-74
2024/01/05 09:24:29;;;;;;;4.27;2.93;;;;;;;6.61;100.00;96791.91;5115999;28;20273;-74
2024/01/05 09:26:55;;;;;;;4.37;2.57;;;;;;;6.57;100.00;96800.50;5115978;28;20287;-74
2024/01/05 09:29:21;;;;;;;4.70;2.30;;;;;;;6.50;100.00;96807.69;5115726;28;20244;-74
2024/01/05 09:31:48;;;;;;;4.80;2.40;;;;;;;6.48;100.00;96815.88;5115925;28;20199;-74
2024/01/05 09:34:14;;;;;;;4.17;2.03;;;;;;;6.53;100.00;96825.75;5115790;28;20321;-74
2024/01/05 09:36:42;;;;;;;6.53;2.23;;;;;;;6.57;100.00;96825.09;5115516;28;20247;-74
2024/01/05 09:39:09;;;;;;;4.57;2.37;;;;;;;6.71;100.00;96836.28;5115965;28;20231;-75
2024/01/05 09:41:35;;;;;;;5.70;1.93;;;;;;;6.80;100.00;96819.91;5114544;27;20295;-74
2024/01/05 09:44:04;;;;;;;6.00;1.70;;;;;;;6.92;100.00;96833.13;5115525;28;20234;-75
2024/01/05 09:46:30;;;;;;;2.90;1.77;;;;;;;6.91;100.00;96828.84;5116156;28;20652;-74
2024/01/05 09:48:58;;;;;;;4.57;2.07;;;;;;;6.93;100.00;96837.38;5115811;28;20199;-74
2024/01/05 09:51:29;;;;;;;5.57;1.93;;;;;;;7.01;100.00;96831.78;5115513;28;20669;-74
2024/01/05 09:53:56;;;;;;;3.07;1.70;;;;;;;7.11;100.00;96829.38;5115523;28;20673;-74
2024/01/05 09:56:24;;;;;;;2.70;1.53;;;;;;;7.21;100.00;96825.16;5115775;28;20206;-74
2024/01/05 09:58:52;;;;;;;4.67;1.70;;;;;;;7.31;100.00;96819.31;5115607;28;20229;-74
2024/01/05 10:01:25;;;;;;;7.90;1.97;;;;;;;7.37;100.00;96813.91;5115693;28;20210;-74
2024/01/05 10:03:55;;;;;;;2.60;1.40;;;;;;;7.45;100.00;96813.56;5115631;28;20630;-74
2024/01/05 10:06:22;;;;;;;3.63;1.47;;;;;;;7.47;100.00;96814.13;5115076;28;20650;-74
2024/01/05 10:08:56;;;;;;;2.93;1.50;;;;;;;7.52;100.00;96808.19;5115549;28;20214;-74
2024/01/05 10:11:29;;;;;;;3.83;1.70;;;;;;;7.55;100.00;96811.16;5115500;28;20259;-74
2024/01/05 10:13:58;;;;;;;2.80;1.50;;;;;;;7.59;100.00;96806.22;5115520;28;20203;-74
2024/01/05 10:16:28;;;;;;;3.87;1.60;;;;;;;7.64;100.00;96815.06;5115350;28;20213;-74
2024/01/05 10:19:16;;;;;;;4.20;1.50;;;;;;;7.68;100.00;96818.06;5114595;28;20216;-74
2024/01/05 10:21:47;;;;;;;5.37;1.90;;;;;;;7.76;100.00;96815.88;5114672;27;20219;-74
2024/01/05 10:24:26;;;;;;;3.83;1.40;;;;;;;7.79;100.00;96825.19;5114822;28;20222;-74
2024/01/05 10:27:07;;;;;;;2.37;1.53;;;;;;;7.83;100.00;96821.84;5114639;28;20745;-74
2024/01/05 10:29:36;;;;;;;4.30;1.70;;;;;;;7.90;100.00;96824.38;5115191;28;20223;-74
2024/01/05 10:32:12;;;;;;;4.10;1.50;;;;;;;7.99;100.00;96823.78;5115313;28;20218;-74
2024/01/05 10:34:40;;;;;;;3.80;1.63;;;;;;;8.03;100.00;96830.22;5115357;28;20195;-74
2024/01/05 10:37:07;;;;;;;4.27;1.93;;;;;;;8.13;100.00;96830.44;5114758;28;20207;-74
2024/01/05 10:39:34;;;;;;;5.03;1.77;;;;;;;8.26;100.00;96826.75;5114254;28;20700;-74
2024/01/05 10:42:20;;;;;;;3.33;1.60;;;;;;;8.42;100.00;96821.53;5114561;28;20712;-74
2024/01/05 10:44:48;;;;;;;3.00;1.40;;;;;;;8.50;100.00;96823.00;5114753;28;20314;-74
2024/01/05 10:47:15;;;;;;;5.13;1.63;;;;;;;8.52;100.00;96816.44;5114930;28;20209;-75
2024/01/05 10:49:48;;;;;;;3.50;1.60;;;;;;;8.54;100.00;96817.00;5114886;28;20250;-75
2024/01/05 10:52:16;;;;;;;4.00;1.30;;;;;;;8.68;100.00;96814.88;5114675;28;20267;-74
2024/01/05 10:54:48;;;;;;;2.63;1.37;;;;;;;8.67;100.00;96805.31;5114678;28;20298;-75
2024/01/05 10:57:16;;;;;;;3.10;1.40;;;;;;;8.76;100.00;96801.25;5114676;28;20599;-75
2024/01/05 10:59:52;;;;;;;5.07;1.60;;;;;;;8.78;100.00;96796.53;5114582;28;20629;-74
2024/01/05 11:02:29;;;;;;;2.37;1.37;;;;;;;8.83;100.00;96796.63;5114608;28;20199;-74
2024/01/05 11:05:10;;;;;;;2.67;1.40;;;;;;;8.91;100.00;96797.03;5114496;28;20234;-75
2024/01/05 11:07:38;;;;;;;4.20;1.40;;;;;;;8.99;100.00;96796.66;5112868;28;20199;-75
2024/01/05 11:10:23;;;;;;;4.47;1.80;;;;;;;9.00;100.00;96803.53;5114266;28;20220;-75
2024/01/05 11:13:06;;;;;;;3.03;1.23;;;;;;;9.05;100.00;96795.69;5113899;28;20236;-75
2024/01/05 11:15:47;;;;;;;2.63;1.40;;;;;;;9.15;100.00;96787.88;5113830;28;20194;-75
2024/01/05 11:18:32;;;;;;;3.07;1.63;;;;;;;9.16;100.00;96786.88;5114829;28;20304;-75
2024/01/05 11:21:09;;;;;;;4.70;1.53;;;;;;;9.28;100.00;96794.75;5113935;28;20236;-74
2024/01/05 11:23:38;;;;;;;2.73;1.30;;;;;;;9.34;100.00;96788.47;5113910;28;20211;-74
2024/01/05 11:26:04;;;;;;;4.50;1.33;;;;;;;9.26;100.00;96789.66;5113903;28;20205;-74
2024/01/05 11:28:36;;;;;;;6.07;1.63;;;;;;;9.24;100.00;96793.59;5113748;28;20208;-75
2024/01/05 11:31:03;;;;;;;4.40;1.90;;;;;;;9.18;100.00;96786.59;5113689;28;20231;-75
2024/01/05 11:33:49;;;;;;;5.13;2.80;;;;;;;9.02;100.00;96787.41;5113505;28;20685;-75
2024/01/05 11:36:49;;;;;;;5.10;2.63;;;;;;;8.86;100.00;96788.16;5113939;28;20194;-75
2024/01/05 11:39:41;;;;;;;5.77;2.73;;;;;;;8.82;100.00;96784.41;5113687;28;20596;-74